Terminal Aerodrome Forecast
Issued by NWS Los Angeles, CA

Home | Current Version | Previous Version | Text Only | Print | Product List | Glossary On
Versions: 1 2 3 4 5 6 7 8 9 10 11 12 13 14 15 16 17 18 19 20 21 22 23 24 25 26 27 28 29
701
FTUS46 KLOX 102107 AAA
TAFSMX
TAF AMD
KSMX 102107Z 1021/1118 30008KT 4SM BR VCSH OVC008
     FM110300 30006KT 5SM -RA BR OVC006
     FM110900 VRB03KT 2SM -RA BR OVC004
     FM111600 VRB03KT 5SM BR VCSH BKN012 OVC025=

USA.gov is the U.S. government's official web portal to all federal, state and local government web resources and services.